sensor_id;sensor_type;location;lat;lon;timestamp;P1;durP1;ratioP1;P2;durP2;ratioP2
9496;SDS011;4786;51.270;4.456;2022-12-29T00:00:09;2.27;;;1.40;;
9496;SDS011;4786;51.270;4.456;2022-12-29T00:02:35;1.97;;;1.50;;
9496;SDS011;4786;51.270;4.456;2022-12-29T00:05:01;1.67;;;1.57;;
9496;SDS011;4786;51.270;4.456;2022-12-29T00:07:28;3.30;;;1.60;;
9496;SDS011;4786;51.270;4.456;2022-12-29T00:09:54;1.63;;;1.50;;
9496;SDS011;4786;51.270;4.456;2022-12-29T00:12:20;1.93;;;1.47;;
9496;SDS011;4786;51.270;4.456;2022-12-29T00:14:46;3.37;;;1.67;;
9496;SDS011;4786;51.270;4.456;2022-12-29T00:17:30;2.60;;;1.60;;
9496;SDS011;4786;51.270;4.456;2022-12-29T00:19:56;1.93;;;1.70;;
9496;SDS011;4786;51.270;4.456;2022-12-29T00:22:40;2.87;;;1.50;;
9496;SDS011;4786;51.270;4.456;2022-12-29T00:25:24;2.60;;;1.70;;
9496;SDS011;4786;51.270;4.456;2022-12-29T00:28:08;1.90;;;1.80;;
9496;SDS011;4786;51.270;4.456;2022-12-29T00:30:53;1.97;;;1.70;;
9496;SDS011;4786;51.270;4.456;2022-12-29T00:33:41;2.47;;;1.73;;
9496;SDS011;4786;51.270;4.456;2022-12-29T00:36:44;1.60;;;1.50;;
9496;SDS011;4786;51.270;4.456;2022-12-29T00:39:12;2.03;;;1.77;;
9496;SDS011;4786;51.270;4.456;2022-12-29T00:42:06;1.50;;;1.40;;
9496;SDS011;4786;51.270;4.456;2022-12-29T00:44:51;2.20;;;1.60;;
9496;SDS011;4786;51.270;4.456;2022-12-29T00:47:17;1.53;;;1.40;;
9496;SDS011;4786;51.270;4.456;2022-12-29T00:49:43;1.37;;;1.27;;
9496;SDS011;4786;51.270;4.456;2022-12-29T00:52:10;2.60;;;1.53;;
9496;SDS011;4786;51.270;4.456;2022-12-29T00:54:38;1.40;;;1.30;;
9496;SDS011;4786;51.270;4.456;2022-12-29T00:57:05;2.03;;;1.30;;
9496;SDS011;4786;51.270;4.456;2022-12-29T00:59:32;1.37;;;1.27;;
9496;SDS011;4786;51.270;4.456;2022-12-29T01:01:59;2.03;;;1.40;;
9496;SDS011;4786;51.270;4.456;2022-12-29T01:04:25;3.80;;;1.50;;
9496;SDS011;4786;51.270;4.456;2022-12-29T01:06:52;2.87;;;1.30;;
9496;SDS011;4786;51.270;4.456;2022-12-29T01:09:19;2.67;;;1.33;;
9496;SDS011;4786;51.270;4.456;2022-12-29T01:12:04;2.40;;;1.43;;
9496;SDS011;4786;51.270;4.456;2022-12-29T01:14:32;3.43;;;1.33;;
9496;SDS011;4786;51.270;4.456;2022-12-29T01:16:58;1.53;;;1.17;;
9496;SDS011;4786;51.270;4.456;2022-12-29T01:19:24;1.77;;;1.20;;
9496;SDS011;4786;51.270;4.456;2022-12-29T01:21:51;2.73;;;1.47;;
9496;SDS011;4786;51.270;4.456;2022-12-29T01:24:18;1.53;;;1.10;;
9496;SDS011;4786;51.270;4.456;2022-12-29T01:26:45;2.10;;;1.20;;
9496;SDS011;4786;51.270;4.456;2022-12-29T01:29:12;1.60;;;1.20;;
9496;SDS011;4786;51.270;4.456;2022-12-29T01:31:38;1.30;;;1.10;;
9496;SDS011;4786;51.270;4.456;2022-12-29T01:34:04;1.57;;;1.20;;
9496;SDS011;4786;51.270;4.456;2022-12-29T01:36:31;2.53;;;1.50;;
9496;SDS011;4786;51.270;4.456;2022-12-29T01:38:58;3.90;;;1.23;;
9496;SDS011;4786;51.270;4.456;2022-12-29T01:41:24;1.80;;;1.40;;
9496;SDS011;4786;51.270;4.456;2022-12-29T01:43:51;2.23;;;1.20;;
9496;SDS011;4786;51.270;4.456;2022-12-29T01:49:13;3.97;;;1.60;;
9496;SDS011;4786;51.270;4.456;2022-12-29T01:51:48;5.13;;;1.67;;
9496;SDS011;4786;51.270;4.456;2022-12-29T01:54:20;5.93;;;1.67;;
9496;SDS011;4786;51.270;4.456;2022-12-29T01:56:53;3.83;;;1.50;;
9496;SDS011;4786;51.270;4.456;2022-12-29T01:59:24;4.03;;;1.47;;
9496;SDS011;4786;51.270;4.456;2022-12-29T02:01:57;2.73;;;1.30;;
9496;SDS011;4786;51.270;4.456;2022-12-29T02:04:24;2.67;;;1.13;;
9496;SDS011;4786;51.270;4.456;2022-12-29T02:07:00;2.47;;;1.30;;
9496;SDS011;4786;51.270;4.456;2022-12-29T02:09:42;2.90;;;1.30;;
9496;SDS011;4786;51.270;4.456;2022-12-29T02:12:08;3.87;;;1.50;;
9496;SDS011;4786;51.270;4.456;2022-12-29T02:14:35;2.93;;;1.37;;
9496;SDS011;4786;51.270;4.456;2022-12-29T02:34:40;3.17;;;1.50;;
9496;SDS011;4786;51.270;4.456;2022-12-29T02:37:29;3.07;;;1.53;;
9496;SDS011;4786;51.270;4.456;2022-12-29T02:43:00;3.27;;;1.40;;
9496;SDS011;4786;51.270;4.456;2022-12-29T02:45:39;2.63;;;1.23;;
9496;SDS011;4786;51.270;4.456;2022-12-29T02:50:52;3.80;;;1.40;;
9496;SDS011;4786;51.270;4.456;2022-12-29T02:53:26;3.17;;;1.43;;
9496;SDS011;4786;51.270;4.456;2022-12-29T02:56:13;4.43;;;1.63;;
9496;SDS011;4786;51.270;4.456;2022-12-29T02:58:39;1.93;;;1.30;;
9496;SDS011;4786;51.270;4.456;2022-12-29T03:06:33;2.17;;;1.33;;
9496;SDS011;4786;51.270;4.456;2022-12-29T03:12:15;3.50;;;1.47;;
9496;SDS011;4786;51.270;4.456;2022-12-29T03:15:02;4.33;;;1.30;;
9496;SDS011;4786;51.270;4.456;2022-12-29T03:18:03;2.10;;;0.93;;
9496;SDS011;4786;51.270;4.456;2022-12-29T03:20:33;5.77;;;1.80;;
9496;SDS011;4786;51.270;4.456;2022-12-29T03:23:07;3.70;;;1.20;;
9496;SDS011;4786;51.270;4.456;2022-12-29T03:25:35;2.63;;;1.30;;
9496;SDS011;4786;51.270;4.456;2022-12-29T03:28:06;5.83;;;1.73;;
9496;SDS011;4786;51.270;4.456;2022-12-29T03:30:36;3.37;;;1.30;;
9496;SDS011;4786;51.270;4.456;2022-12-29T03:33:05;4.20;;;1.50;;
9496;SDS011;4786;51.270;4.456;2022-12-29T03:35:36;4.83;;;1.30;;
9496;SDS011;4786;51.270;4.456;2022-12-29T03:40:36;4.13;;;1.40;;
9496;SDS011;4786;51.270;4.456;2022-12-29T03:43:05;4.73;;;1.60;;
9496;SDS011;4786;51.270;4.456;2022-12-29T03:45:32;3.80;;;1.33;;
9496;SDS011;4786;51.270;4.456;2022-12-29T03:47:58;5.80;;;1.27;;
9496;SDS011;4786;51.270;4.456;2022-12-29T03:50:24;4.63;;;1.40;;
9496;SDS011;4786;51.270;4.456;2022-12-29T03:52:50;5.57;;;1.40;;
9496;SDS011;4786;51.270;4.456;2022-12-29T03:55:16;5.07;;;1.50;;
9496;SDS011;4786;51.270;4.456;2022-12-29T03:57:42;3.37;;;1.37;;
9496;SDS011;4786;51.270;4.456;2022-12-29T04:00:08;6.10;;;2.20;;
9496;SDS011;4786;51.270;4.456;2022-12-29T04:02:34;6.83;;;1.70;;
9496;SDS011;4786;51.270;4.456;2022-12-29T04:05:00;5.03;;;1.60;;
9496;SDS011;4786;51.270;4.456;2022-12-29T04:07:26;5.70;;;1.70;;
9496;SDS011;4786;51.270;4.456;2022-12-29T04:09:52;5.63;;;1.80;;
9496;SDS011;4786;51.270;4.456;2022-12-29T04:12:18;5.70;;;1.70;;
9496;SDS011;4786;51.270;4.456;2022-12-29T04:14:44;8.33;;;1.67;;
9496;SDS011;4786;51.270;4.456;2022-12-29T04:17:10;5.17;;;1.77;;
9496;SDS011;4786;51.270;4.456;2022-12-29T04:19:37;6.13;;;2.30;;
9496;SDS011;4786;51.270;4.456;2022-12-29T04:22:03;6.50;;;2.03;;
9496;SDS011;4786;51.270;4.456;2022-12-29T04:24:28;3.93;;;1.70;;
9496;SDS011;4786;51.270;4.456;2022-12-29T04:26:55;4.33;;;1.67;;
9496;SDS011;4786;51.270;4.456;2022-12-29T04:29:21;5.43;;;1.90;;
9496;SDS011;4786;51.270;4.456;2022-12-29T04:31:47;7.53;;;1.77;;
9496;SDS011;4786;51.270;4.456;2022-12-29T04:34:13;4.80;;;1.90;;
9496;SDS011;4786;51.270;4.456;2022-12-29T04:36:39;4.83;;;1.50;;
9496;SDS011;4786;51.270;4.456;2022-12-29T04:39:06;6.13;;;1.63;;
9496;SDS011;4786;51.270;4.456;2022-12-29T04:41:32;7.50;;;1.63;;
9496;SDS011;4786;51.270;4.456;2022-12-29T04:43:58;10.90;;;1.77;;
9496;SDS011;4786;51.270;4.456;2022-12-29T04:46:24;5.73;;;1.80;;
9496;SDS011;4786;51.270;4.456;2022-12-29T04:48:50;9.87;;;2.63;;
9496;SDS011;4786;51.270;4.456;2022-12-29T04:51:16;6.27;;;1.73;;
9496;SDS011;4786;51.270;4.456;2022-12-29T04:53:42;4.70;;;2.10;;
9496;SDS011;4786;51.270;4.456;2022-12-29T04:56:08;8.70;;;2.10;;
9496;SDS011;4786;51.270;4.456;2022-12-29T04:58:34;7.40;;;1.80;;
9496;SDS011;4786;51.270;4.456;2022-12-29T05:01:01;7.37;;;2.30;;
9496;SDS011;4786;51.270;4.456;2022-12-29T05:03:27;6.10;;;1.73;;
9496;SDS011;4786;51.270;4.456;2022-12-29T05:05:54;4.97;;;1.70;;
9496;SDS011;4786;51.270;4.456;2022-12-29T05:08:21;8.57;;;1.90;;
9496;SDS011;4786;51.270;4.456;2022-12-29T05:10:49;8.13;;;1.90;;
9496;SDS011;4786;51.270;4.456;2022-12-29T05:13:16;9.33;;;2.10;;
9496;SDS011;4786;51.270;4.456;2022-12-29T05:15:46;4.43;;;1.77;;
9496;SDS011;4786;51.270;4.456;2022-12-29T05:18:15;3.23;;;1.20;;
9496;SDS011;4786;51.270;4.456;2022-12-29T05:20:41;4.20;;;1.33;;
9496;SDS011;4786;51.270;4.456;2022-12-29T05:23:06;4.17;;;1.60;;
9496;SDS011;4786;51.270;4.456;2022-12-29T05:25:32;7.37;;;1.70;;
9496;SDS011;4786;51.270;4.456;2022-12-29T05:27:58;4.13;;;1.70;;
9496;SDS011;4786;51.270;4.456;2022-12-29T05:30:24;4.93;;;1.70;;
9496;SDS011;4786;51.270;4.456;2022-12-29T05:32:49;3.77;;;1.77;;
9496;SDS011;4786;51.270;4.456;2022-12-29T05:35:15;6.10;;;1.60;;
9496;SDS011;4786;51.270;4.456;2022-12-29T05:37:41;5.20;;;1.80;;
9496;SDS011;4786;51.270;4.456;2022-12-29T05:40:06;4.97;;;1.70;;
9496;SDS011;4786;51.270;4.456;2022-12-29T05:42:33;6.17;;;1.70;;
9496;SDS011;4786;51.270;4.456;2022-12-29T05:44:58;3.33;;;1.47;;
9496;SDS011;4786;51.270;4.456;2022-12-29T05:47:25;5.37;;;1.30;;
9496;SDS011;4786;51.270;4.456;2022-12-29T05:49:52;7.37;;;2.03;;
9496;SDS011;4786;51.270;4.456;2022-12-29T05:52:18;6.07;;;1.73;;
9496;SDS011;4786;51.270;4.456;2022-12-29T05:54:44;5.53;;;1.87;;
9496;SDS011;4786;51.270;4.456;2022-12-29T05:57:10;10.47;;;2.00;;
9496;SDS011;4786;51.270;4.456;2022-12-29T05:59:36;7.77;;;1.80;;
9496;SDS011;4786;51.270;4.456;2022-12-29T06:02:02;6.90;;;1.77;;
9496;SDS011;4786;51.270;4.456;2022-12-29T06:04:28;6.10;;;1.77;;
9496;SDS011;4786;51.270;4.456;2022-12-29T06:06:54;5.47;;;1.60;;
9496;SDS011;4786;51.270;4.456;2022-12-29T06:09:20;6.90;;;1.73;;
9496;SDS011;4786;51.270;4.456;2022-12-29T06:11:45;8.40;;;2.50;;
9496;SDS011;4786;51.270;4.456;2022-12-29T06:14:11;6.10;;;1.97;;
9496;SDS011;4786;51.270;4.456;2022-12-29T06:16:37;7.87;;;1.97;;
9496;SDS011;4786;51.270;4.456;2022-12-29T06:19:03;4.03;;;1.67;;
9496;SDS011;4786;51.270;4.456;2022-12-29T06:21:29;4.83;;;1.53;;
9496;SDS011;4786;51.270;4.456;2022-12-29T06:23:55;4.73;;;1.60;;
9496;SDS011;4786;51.270;4.456;2022-12-29T06:26:21;5.13;;;1.73;;
9496;SDS011;4786;51.270;4.456;2022-12-29T06:28:47;10.43;;;2.20;;
9496;SDS011;4786;51.270;4.456;2022-12-29T06:31:13;7.33;;;1.80;;
9496;SDS011;4786;51.270;4.456;2022-12-29T06:33:39;6.97;;;2.17;;
9496;SDS011;4786;51.270;4.456;2022-12-29T06:36:06;5.93;;;2.00;;
9496;SDS011;4786;51.270;4.456;2022-12-29T06:38:32;6.07;;;2.00;;
9496;SDS011;4786;51.270;4.456;2022-12-29T06:40:57;7.53;;;2.03;;
9496;SDS011;4786;51.270;4.456;2022-12-29T06:43:23;10.03;;;2.47;;
9496;SDS011;4786;51.270;4.456;2022-12-29T06:45:49;8.07;;;2.03;;
9496;SDS011;4786;51.270;4.456;2022-12-29T06:48:15;7.53;;;2.43;;
9496;SDS011;4786;51.270;4.456;2022-12-29T06:50:41;10.13;;;2.93;;
9496;SDS011;4786;51.270;4.456;2022-12-29T06:53:07;7.80;;;2.03;;
9496;SDS011;4786;51.270;4.456;2022-12-29T06:55:33;9.90;;;2.17;;
9496;SDS011;4786;51.270;4.456;2022-12-29T06:57:59;7.07;;;2.37;;
9496;SDS011;4786;51.270;4.456;2022-12-29T07:00:26;7.47;;;2.27;;
9496;SDS011;4786;51.270;4.456;2022-12-29T07:02:52;9.40;;;2.27;;
9496;SDS011;4786;51.270;4.456;2022-12-29T07:05:20;10.33;;;2.50;;
9496;SDS011;4786;51.270;4.456;2022-12-29T07:07:46;7.10;;;2.10;;
9496;SDS011;4786;51.270;4.456;2022-12-29T07:10:12;8.40;;;2.20;;
9496;SDS011;4786;51.270;4.456;2022-12-29T07:12:38;5.67;;;2.10;;
9496;SDS011;4786;51.270;4.456;2022-12-29T07:15:04;7.27;;;2.40;;
9496;SDS011;4786;51.270;4.456;2022-12-29T07:17:30;7.40;;;1.80;;
9496;SDS011;4786;51.270;4.456;2022-12-29T07:19:56;9.90;;;2.60;;
9496;SDS011;4786;51.270;4.456;2022-12-29T07:22:22;12.80;;;2.80;;
9496;SDS011;4786;51.270;4.456;2022-12-29T07:24:48;8.80;;;2.27;;
9496;SDS011;4786;51.270;4.456;2022-12-29T07:27:14;9.47;;;2.30;;
9496;SDS011;4786;51.270;4.456;2022-12-29T07:29:40;7.30;;;2.50;;
9496;SDS011;4786;51.270;4.456;2022-12-29T07:32:06;9.70;;;2.70;;
9496;SDS011;4786;51.270;4.456;2022-12-29T07:34:32;6.67;;;1.90;;
9496;SDS011;4786;51.270;4.456;2022-12-29T07:36:59;7.97;;;2.47;;
9496;SDS011;4786;51.270;4.456;2022-12-29T07:39:24;10.40;;;2.57;;
9496;SDS011;4786;51.270;4.456;2022-12-29T07:41:50;10.27;;;3.10;;
9496;SDS011;4786;51.270;4.456;2022-12-29T07:44:16;9.47;;;2.33;;
9496;SDS011;4786;51.270;4.456;2022-12-29T07:46:42;7.27;;;2.40;;
9496;SDS011;4786;51.270;4.456;2022-12-29T07:49:08;13.10;;;2.70;;
9496;SDS011;4786;51.270;4.456;2022-12-29T07:51:33;9.67;;;2.40;;
9496;SDS011;4786;51.270;4.456;2022-12-29T07:54:00;13.00;;;2.70;;
9496;SDS011;4786;51.270;4.456;2022-12-29T07:56:26;8.90;;;2.63;;
9496;SDS011;4786;51.270;4.456;2022-12-29T07:58:52;9.47;;;2.60;;
9496;SDS011;4786;51.270;4.456;2022-12-29T08:01:19;9.57;;;2.50;;
9496;SDS011;4786;51.270;4.456;2022-12-29T08:03:44;8.10;;;2.57;;
9496;SDS011;4786;51.270;4.456;2022-12-29T08:06:10;12.07;;;2.47;;
9496;SDS011;4786;51.270;4.456;2022-12-29T08:08:36;12.60;;;2.77;;
9496;SDS011;4786;51.270;4.456;2022-12-29T08:11:03;10.87;;;2.53;;
9496;SDS011;4786;51.270;4.456;2022-12-29T08:13:28;7.63;;;2.10;;
9496;SDS011;4786;51.270;4.456;2022-12-29T08:15:55;11.37;;;2.80;;
9496;SDS011;4786;51.270;4.456;2022-12-29T08:18:23;8.07;;;2.57;;
9496;SDS011;4786;51.270;4.456;2022-12-29T08:20:49;8.83;;;2.40;;
9496;SDS011;4786;51.270;4.456;2022-12-29T08:23:15;10.60;;;2.60;;
9496;SDS011;4786;51.270;4.456;2022-12-29T08:25:41;7.13;;;2.43;;
9496;SDS011;4786;51.270;4.456;2022-12-29T08:28:07;11.47;;;2.80;;
9496;SDS011;4786;51.270;4.456;2022-12-29T08:30:33;10.37;;;2.87;;
9496;SDS011;4786;51.270;4.456;2022-12-29T08:32:59;8.47;;;2.13;;
9496;SDS011;4786;51.270;4.456;2022-12-29T08:35:25;7.90;;;2.67;;
9496;SDS011;4786;51.270;4.456;2022-12-29T08:37:51;7.47;;;2.47;;
9496;SDS011;4786;51.270;4.456;2022-12-29T08:40:17;11.07;;;2.50;;
9496;SDS011;4786;51.270;4.456;2022-12-29T08:42:44;9.83;;;2.57;;
9496;SDS011;4786;51.270;4.456;2022-12-29T08:45:10;9.10;;;2.60;;
9496;SDS011;4786;51.270;4.456;2022-12-29T08:47:36;11.67;;;2.73;;
9496;SDS011;4786;51.270;4.456;2022-12-29T08:50:02;9.63;;;2.87;;
9496;SDS011;4786;51.270;4.456;2022-12-29T08:52:28;9.30;;;2.73;;
9496;SDS011;4786;51.270;4.456;2022-12-29T08:54:54;9.40;;;2.70;;
9496;SDS011;4786;51.270;4.456;2022-12-29T08:57:20;12.17;;;2.47;;
9496;SDS011;4786;51.270;4.456;2022-12-29T08:59:47;6.70;;;2.50;;
9496;SDS011;4786;51.270;4.456;2022-12-29T09:02:13;12.77;;;2.67;;
9496;SDS011;4786;51.270;4.456;2022-12-29T09:04:39;10.93;;;2.90;;
9496;SDS011;4786;51.270;4.456;2022-12-29T09:07:05;10.10;;;2.47;;
9496;SDS011;4786;51.270;4.456;2022-12-29T09:09:32;8.43;;;2.53;;
9496;SDS011;4786;51.270;4.456;2022-12-29T09:11:58;9.73;;;2.40;;
9496;SDS011;4786;51.270;4.456;2022-12-29T09:14:24;13.03;;;2.87;;
9496;SDS011;4786;51.270;4.456;2022-12-29T09:16:51;11.70;;;3.10;;
9496;SDS011;4786;51.270;4.456;2022-12-29T09:19:36;15.00;;;3.23;;
9496;SDS011;4786;51.270;4.456;2022-12-29T09:22:02;9.33;;;2.80;;
9496;SDS011;4786;51.270;4.456;2022-12-29T09:24:28;9.73;;;2.60;;
9496;SDS011;4786;51.270;4.456;2022-12-29T09:26:54;14.33;;;2.80;;
9496;SDS011;4786;51.270;4.456;2022-12-29T09:29:20;11.33;;;2.97;;
9496;SDS011;4786;51.270;4.456;2022-12-29T09:31:46;10.77;;;2.70;;
9496;SDS011;4786;51.270;4.456;2022-12-29T09:34:12;8.17;;;2.70;;
9496;SDS011;4786;51.270;4.456;2022-12-29T09:36:38;7.97;;;2.73;;
9496;SDS011;4786;51.270;4.456;2022-12-29T09:39:04;8.20;;;2.73;;
9496;SDS011;4786;51.270;4.456;2022-12-29T09:41:37;10.00;;;2.87;;
9496;SDS011;4786;51.270;4.456;2022-12-29T09:44:15;14.27;;;2.97;;
9496;SDS011;4786;51.270;4.456;2022-12-29T09:46:48;10.77;;;3.10;;
9496;SDS011;4786;51.270;4.456;2022-12-29T09:51:49;13.03;;;3.37;;
9496;SDS011;4786;51.270;4.456;2022-12-29T09:56:54;14.20;;;3.53;;
9496;SDS011;4786;51.270;4.456;2022-12-29T09:59:22;9.20;;;2.60;;
9496;SDS011;4786;51.270;4.456;2022-12-29T10:01:58;11.77;;;3.37;;
9496;SDS011;4786;51.270;4.456;2022-12-29T10:04:35;10.03;;;3.00;;
9496;SDS011;4786;51.270;4.456;2022-12-29T10:07:12;13.13;;;2.93;;
9496;SDS011;4786;51.270;4.456;2022-12-29T10:09:48;12.47;;;3.13;;
9496;SDS011;4786;51.270;4.456;2022-12-29T10:12:42;13.97;;;4.33;;
9496;SDS011;4786;51.270;4.456;2022-12-29T10:21:04;9.37;;;2.87;;
9496;SDS011;4786;51.270;4.456;2022-12-29T10:23:45;12.07;;;3.53;;
9496;SDS011;4786;51.270;4.456;2022-12-29T10:26:17;12.63;;;3.63;;
9496;SDS011;4786;51.270;4.456;2022-12-29T10:28:52;9.20;;;3.20;;
9496;SDS011;4786;51.270;4.456;2022-12-29T10:31:24;12.67;;;3.93;;
9496;SDS011;4786;51.270;4.456;2022-12-29T10:33:59;16.87;;;3.57;;
9496;SDS011;4786;51.270;4.456;2022-12-29T10:36:34;10.77;;;3.60;;
9496;SDS011;4786;51.270;4.456;2022-12-29T10:39:19;17.30;;;3.77;;
9496;SDS011;4786;51.270;4.456;2022-12-29T10:44:22;11.17;;;3.47;;
9496;SDS011;4786;51.270;4.456;2022-12-29T10:46:57;14.13;;;3.57;;
9496;SDS011;4786;51.270;4.456;2022-12-29T10:49:26;14.53;;;3.33;;
9496;SDS011;4786;51.270;4.456;2022-12-29T10:51:57;12.27;;;3.37;;
9496;SDS011;4786;51.270;4.456;2022-12-29T10:54:29;13.63;;;3.47;;
9496;SDS011;4786;51.270;4.456;2022-12-29T10:57:03;11.70;;;3.30;;
9496;SDS011;4786;51.270;4.456;2022-12-29T10:59:35;11.67;;;3.43;;
9496;SDS011;4786;51.270;4.456;2022-12-29T11:07:27;12.93;;;3.40;;
9496;SDS011;4786;51.270;4.456;2022-12-29T11:09:55;8.13;;;2.83;;
9496;SDS011;4786;51.270;4.456;2022-12-29T11:12:41;12.77;;;3.40;;
9496;SDS011;4786;51.270;4.456;2022-12-29T11:15:22;12.43;;;3.33;;
9496;SDS011;4786;51.270;4.456;2022-12-29T11:17:51;11.60;;;3.57;;
9496;SDS011;4786;51.270;4.456;2022-12-29T11:20:32;11.23;;;3.47;;
9496;SDS011;4786;51.270;4.456;2022-12-29T11:23:00;13.77;;;3.17;;
9496;SDS011;4786;51.270;4.456;2022-12-29T11:25:28;12.03;;;3.33;;
9496;SDS011;4786;51.270;4.456;2022-12-29T11:28:02;8.80;;;3.30;;
9496;SDS011;4786;51.270;4.456;2022-12-29T11:30:43;13.30;;;3.40;;
9496;SDS011;4786;51.270;4.456;2022-12-29T11:33:09;10.63;;;2.93;;
9496;SDS011;4786;51.270;4.456;2022-12-29T11:35:42;10.37;;;2.70;;
9496;SDS011;4786;51.270;4.456;2022-12-29T11:38:21;12.57;;;3.07;;
9496;SDS011;4786;51.270;4.456;2022-12-29T11:40:55;6.93;;;2.40;;
9496;SDS011;4786;51.270;4.456;2022-12-29T11:46:00;10.47;;;2.73;;
9496;SDS011;4786;51.270;4.456;2022-12-29T11:48:46;8.17;;;2.30;;
9496;SDS011;4786;51.270;4.456;2022-12-29T11:51:13;9.43;;;2.47;;
9496;SDS011;4786;51.270;4.456;2022-12-29T11:54:09;10.47;;;2.80;;
9496;SDS011;4786;51.270;4.456;2022-12-29T11:56:42;7.30;;;2.20;;
9496;SDS011;4786;51.270;4.456;2022-12-29T11:59:24;9.67;;;2.20;;
9496;SDS011;4786;51.270;4.456;2022-12-29T12:01:49;7.37;;;2.50;;
9496;SDS011;4786;51.270;4.456;2022-12-29T12:04:16;8.83;;;2.60;;
9496;SDS011;4786;51.270;4.456;2022-12-29T12:12:34;6.87;;;2.40;;
9496;SDS011;4786;51.270;4.456;2022-12-29T12:15:12;11.23;;;3.13;;
9496;SDS011;4786;51.270;4.456;2022-12-29T12:20:44;10.07;;;2.77;;
9496;SDS011;4786;51.270;4.456;2022-12-29T12:28:40;8.80;;;3.07;;
9496;SDS011;4786;51.270;4.456;2022-12-29T12:31:16;9.57;;;2.40;;
9496;SDS011;4786;51.270;4.456;2022-12-29T12:34:05;7.77;;;2.17;;
9496;SDS011;4786;51.270;4.456;2022-12-29T12:39:23;13.50;;;3.33;;
9496;SDS011;4786;51.270;4.456;2022-12-29T12:50:02;13.47;;;3.20;;
9496;SDS011;4786;51.270;4.456;2022-12-29T13:12:55;14.00;;;3.10;;
9496;SDS011;4786;51.270;4.456;2022-12-29T13:15:46;12.00;;;3.43;;
9496;SDS011;4786;51.270;4.456;2022-12-29T13:18:32;9.03;;;3.03;;
9496;SDS011;4786;51.270;4.456;2022-12-29T13:22:07;13.50;;;3.37;;
9496;SDS011;4786;51.270;4.456;2022-12-29T13:27:14;12.83;;;3.00;;
9496;SDS011;4786;51.270;4.456;2022-12-29T13:40:49;7.93;;;2.07;;
9496;SDS011;4786;51.270;4.456;2022-12-29T13:43:20;8.93;;;2.27;;
9496;SDS011;4786;51.270;4.456;2022-12-29T13:45:52;6.67;;;2.17;;
9496;SDS011;4786;51.270;4.456;2022-12-29T13:48:24;7.60;;;1.93;;
9496;SDS011;4786;51.270;4.456;2022-12-29T13:51:00;9.87;;;2.53;;
9496;SDS011;4786;51.270;4.456;2022-12-29T13:53:34;6.07;;;1.70;;
9496;SDS011;4786;51.270;4.456;2022-12-29T13:56:12;6.13;;;2.17;;
9496;SDS011;4786;51.270;4.456;2022-12-29T13:58:54;7.93;;;2.30;;
9496;SDS011;4786;51.270;4.456;2022-12-29T14:01:35;6.73;;;2.07;;
9496;SDS011;4786;51.270;4.456;2022-12-29T14:04:14;10.93;;;2.40;;
9496;SDS011;4786;51.270;4.456;2022-12-29T14:06:47;4.07;;;1.90;;
9496;SDS011;4786;51.270;4.456;2022-12-29T14:12:30;9.47;;;2.27;;
9496;SDS011;4786;51.270;4.456;2022-12-29T14:15:13;5.73;;;2.10;;
9496;SDS011;4786;51.270;4.456;2022-12-29T14:17:59;5.17;;;2.17;;
9496;SDS011;4786;51.270;4.456;2022-12-29T14:20:27;4.33;;;1.80;;
9496;SDS011;4786;51.270;4.456;2022-12-29T14:22:57;5.67;;;1.80;;
9496;SDS011;4786;51.270;4.456;2022-12-29T14:30:52;4.20;;;1.40;;
9496;SDS011;4786;51.270;4.456;2022-12-29T14:33:20;3.83;;;1.40;;
9496;SDS011;4786;51.270;4.456;2022-12-29T14:35:47;3.03;;;1.30;;
9496;SDS011;4786;51.270;4.456;2022-12-29T14:38:21;4.50;;;1.50;;
9496;SDS011;4786;51.270;4.456;2022-12-29T14:40:49;2.53;;;1.33;;
9496;SDS011;4786;51.270;4.456;2022-12-29T14:43:20;4.03;;;1.40;;
9496;SDS011;4786;51.270;4.456;2022-12-29T14:45:55;3.90;;;1.70;;
9496;SDS011;4786;51.270;4.456;2022-12-29T14:51:01;3.43;;;1.50;;
9496;SDS011;4786;51.270;4.456;2022-12-29T14:56:17;4.73;;;1.83;;
9496;SDS011;4786;51.270;4.456;2022-12-29T14:58:47;5.60;;;1.90;;
9496;SDS011;4786;51.270;4.456;2022-12-29T15:03:47;7.97;;;2.43;;
9496;SDS011;4786;51.270;4.456;2022-12-29T15:06:16;3.50;;;1.73;;
9496;SDS011;4786;51.270;4.456;2022-12-29T15:11:41;3.80;;;1.43;;
9496;SDS011;4786;51.270;4.456;2022-12-29T15:14:32;4.97;;;1.60;;
9496;SDS011;4786;51.270;4.456;2022-12-29T15:17:36;5.10;;;1.67;;
9496;SDS011;4786;51.270;4.456;2022-12-29T15:19:57;3.60;;;1.37;;
9496;SDS011;4786;51.270;4.456;2022-12-29T15:22:41;4.53;;;2.07;;
9496;SDS011;4786;51.270;4.456;2022-12-29T15:25:15;6.13;;;1.90;;
9496;SDS011;4786;51.270;4.456;2022-12-29T15:27:42;4.40;;;1.70;;
9496;SDS011;4786;51.270;4.456;2022-12-29T15:30:13;3.87;;;1.70;;
9496;SDS011;4786;51.270;4.456;2022-12-29T15:32:40;2.83;;;1.60;;
9496;SDS011;4786;51.270;4.456;2022-12-29T15:37:57;5.63;;;1.97;;
9496;SDS011;4786;51.270;4.456;2022-12-29T15:40:28;4.13;;;1.40;;
9496;SDS011;4786;51.270;4.456;2022-12-29T15:43:17;7.43;;;2.03;;
9496;SDS011;4786;51.270;4.456;2022-12-29T15:45:52;6.37;;;2.20;;
9496;SDS011;4786;51.270;4.456;2022-12-29T15:48:23;5.63;;;1.87;;
9496;SDS011;4786;51.270;4.456;2022-12-29T15:50:50;5.37;;;2.00;;
9496;SDS011;4786;51.270;4.456;2022-12-29T15:53:24;6.60;;;2.10;;
9496;SDS011;4786;51.270;4.456;2022-12-29T15:56:00;6.97;;;2.13;;
9496;SDS011;4786;51.270;4.456;2022-12-29T15:58:32;5.40;;;1.73;;
9496;SDS011;4786;51.270;4.456;2022-12-29T16:03:44;11.53;;;2.40;;
9496;SDS011;4786;51.270;4.456;2022-12-29T16:06:25;6.70;;;2.80;;
9496;SDS011;4786;51.270;4.456;2022-12-29T16:09:02;9.77;;;2.60;;
9496;SDS011;4786;51.270;4.456;2022-12-29T16:14:00;6.33;;;2.13;;
9496;SDS011;4786;51.270;4.456;2022-12-29T16:16:28;7.10;;;2.77;;
9496;SDS011;4786;51.270;4.456;2022-12-29T16:19:02;7.87;;;2.20;;
9496;SDS011;4786;51.270;4.456;2022-12-29T16:21:36;5.40;;;1.80;;
9496;SDS011;4786;51.270;4.456;2022-12-29T16:24:06;9.97;;;2.67;;
9496;SDS011;4786;51.270;4.456;2022-12-29T16:26:48;10.37;;;2.50;;
9496;SDS011;4786;51.270;4.456;2022-12-29T16:29:16;7.40;;;2.40;;
9496;SDS011;4786;51.270;4.456;2022-12-29T16:31:51;9.53;;;2.47;;
9496;SDS011;4786;51.270;4.456;2022-12-29T16:37:44;6.13;;;2.57;;
9496;SDS011;4786;51.270;4.456;2022-12-29T16:40:22;9.30;;;2.40;;
9496;SDS011;4786;51.270;4.456;2022-12-29T16:42:49;7.53;;;2.43;;
9496;SDS011;4786;51.270;4.456;2022-12-29T16:47:45;11.57;;;3.03;;
9496;SDS011;4786;51.270;4.456;2022-12-29T16:50:35;11.93;;;3.17;;
9496;SDS011;4786;51.270;4.456;2022-12-29T16:53:04;8.57;;;2.87;;
9496;SDS011;4786;51.270;4.456;2022-12-29T16:55:31;11.53;;;3.10;;
9496;SDS011;4786;51.270;4.456;2022-12-29T16:57:57;10.57;;;3.10;;
9496;SDS011;4786;51.270;4.456;2022-12-29T17:00:29;8.13;;;2.50;;
9496;SDS011;4786;51.270;4.456;2022-12-29T17:02:59;9.47;;;3.03;;
9496;SDS011;4786;51.270;4.456;2022-12-29T17:05:27;11.47;;;3.37;;
9496;SDS011;4786;51.270;4.456;2022-12-29T17:07:53;8.37;;;2.90;;
9496;SDS011;4786;51.270;4.456;2022-12-29T17:10:19;12.27;;;3.17;;
9496;SDS011;4786;51.270;4.456;2022-12-29T17:12:47;8.90;;;3.37;;
9496;SDS011;4786;51.270;4.456;2022-12-29T17:15:14;10.37;;;3.03;;
9496;SDS011;4786;51.270;4.456;2022-12-29T17:17:49;11.13;;;3.33;;
9496;SDS011;4786;51.270;4.456;2022-12-29T17:20:22;10.27;;;3.10;;
9496;SDS011;4786;51.270;4.456;2022-12-29T17:22:53;11.70;;;3.20;;
9496;SDS011;4786;51.270;4.456;2022-12-29T17:25:37;12.33;;;3.70;;
9496;SDS011;4786;51.270;4.456;2022-12-29T17:28:13;10.00;;;3.10;;
9496;SDS011;4786;51.270;4.456;2022-12-29T17:30:45;15.87;;;3.63;;
9496;SDS011;4786;51.270;4.456;2022-12-29T17:33:12;12.37;;;4.07;;
9496;SDS011;4786;51.270;4.456;2022-12-29T17:35:41;16.10;;;4.13;;
9496;SDS011;4786;51.270;4.456;2022-12-29T17:40:53;12.67;;;3.30;;
9496;SDS011;4786;51.270;4.456;2022-12-29T17:43:19;16.13;;;3.83;;
9496;SDS011;4786;51.270;4.456;2022-12-29T17:45:52;7.83;;;3.20;;
9496;SDS011;4786;51.270;4.456;2022-12-29T17:48:21;12.17;;;3.60;;
9496;SDS011;4786;51.270;4.456;2022-12-29T17:50:48;8.90;;;3.27;;
9496;SDS011;4786;51.270;4.456;2022-12-29T17:53:24;13.17;;;3.60;;
9496;SDS011;4786;51.270;4.456;2022-12-29T17:55:52;13.57;;;3.77;;
9496;SDS011;4786;51.270;4.456;2022-12-29T17:58:22;17.00;;;3.53;;
9496;SDS011;4786;51.270;4.456;2022-12-29T18:00:52;14.03;;;3.73;;
9496;SDS011;4786;51.270;4.456;2022-12-29T18:03:22;14.27;;;4.30;;
9496;SDS011;4786;51.270;4.456;2022-12-29T18:05:58;19.90;;;4.03;;